Main page
METAR-TAF:

METAR-TAF

Airports :

Lille, France

Lille Airport

latitude: 50-34N, longitude: 003-06E, elevation: 48 m

Current weather observation

The report was made 31 minutes ago, at 11:30 UTC
Wind 11 kt from the South/Southwest
Temperature 8°C
Humidity 93%
Pressure 1017 hPa
Visibility: 3900 m
Overcast at a height of 500 ft
light rain, mist

METAR: LFQQ 201130Z AUTO 21011KT 3900 -RA BR OVC005 08/07 Q1017 TEMPO 25018G28KT 2000 DZRA

Time: 13:01 (12:01 UTC)

Forecast

The report was made 1 hour and 1 minutes ago, at 11:00 UTC
Forecast valid from 20 at 12 UTC to 21 at 18 UTC
Wind 10 kt from the South/Southwest
Visibility 10 km or more
Overcast at a height of 1600 ft
Temporary
from 20 at 12 UTC to 21 at 14 UTC
Visibility: 2000 m
Overcast at a height of 500 ft
drizzle, rain
Temporary
from 20 at 13 UTC to 20 at 17 UTC
Wind 18 kt from the West/Southwest with gusts up to 28 kt

TAF: LFQQ 201100Z 2012/2118 21010KT 9999 OVC016 TEMPO 2012/2114 2000 DZRA OVC005 TEMPO 2013/2017 25018G28KT

Weather observations and forecasts of more than 4000 airports (METAR and TAF reports).

The available stations are represented by yellow and red dots on the map.

Hover mouse over dot to see the name of the station.

Then click to see weather observations and forecasts.

To change the map : click on the green buttons with a black cross to zoom in, on the green button with a dash to zoom out, or on the green arrows for adjacent maps.


METAR-TAF: